createdAt,value
2023-05-14T00:00:48.573Z,13.55
2023-05-14T00:02:51.238Z,11.38
2023-05-14T00:04:54.110Z,12.60
2023-05-14T00:06:56.443Z,12.30
2023-05-14T00:08:58.809Z,12.55
2023-05-14T00:11:01.717Z,12.20
2023-05-14T00:13:04.082Z,10.73
2023-05-14T00:15:07.334Z,10.13
2023-05-14T00:17:09.887Z,10.60
2023-05-14T00:19:12.355Z,8.90
2023-05-14T00:21:14.925Z,8.73
2023-05-14T00:23:17.622Z,8.18
2023-05-14T00:25:20.840Z,8.68
2023-05-14T00:27:23.814Z,9.13
2023-05-14T00:29:26.763Z,8.20
2023-05-14T00:31:29.380Z,8.15
2023-05-14T00:33:31.922Z,10.00
2023-05-14T00:35:37.644Z,9.25
2023-05-14T00:37:40.187Z,9.25
2023-05-14T00:39:42.919Z,9.90
2023-05-14T00:41:45.722Z,9.85
2023-05-14T00:43:48.286Z,8.80
2023-05-14T00:45:54.929Z,11.02
2023-05-14T00:47:57.547Z,9.32
2023-05-14T00:50:00.110Z,10.95
2023-05-14T00:52:03.118Z,9.45
2023-05-14T00:54:06.687Z,9.63
2023-05-14T00:56:09.925Z,9.30
2023-05-14T00:58:14.267Z,9.55
2023-05-14T01:00:17.557Z,10.75
2023-05-14T01:02:20.148Z,10.85
2023-05-14T01:04:23.366Z,10.85
2023-05-14T01:07:02.444Z,11.25
2023-05-14T01:09:29.510Z,9.45
2023-05-14T01:12:19.047Z,9.82
2023-05-14T01:14:29.593Z,12.38
2023-05-14T01:16:35.694Z,12.20
2023-05-14T01:18:40.409Z,10.77
2023-05-14T01:20:44.212Z,13.05
2023-05-14T01:22:46.828Z,12.80
2023-05-14T01:24:49.740Z,15.13
2023-05-14T01:26:53.122Z,14.80
2023-05-14T01:29:14.768Z,14.85
2023-05-14T01:31:25.470Z,14.15
2023-05-14T01:33:30.588Z,12.10
2023-05-14T01:35:34.041Z,14.05
2023-05-14T01:37:37.611Z,12.25
2023-05-14T01:39:42.594Z,12.77
2023-05-14T01:41:47.401Z,11.40
2023-05-14T01:43:51.180Z,12.90
2023-05-14T01:45:55.794Z,12.68
2023-05-14T01:48:00.285Z,11.00
2023-05-14T01:50:02.903Z,10.95
2023-05-14T01:52:07.619Z,12.45
2023-05-14T01:54:10.111Z,11.98
2023-05-14T01:56:12.618Z,11.77
2023-05-14T01:58:15.312Z,12.48
2023-05-14T02:00:18.118Z,11.43
2023-05-14T02:02:20.935Z,12.13
2023-05-14T02:04:23.588Z,12.73
2023-05-14T02:06:26.885Z,12.68
2023-05-14T02:08:31.716Z,13.00
2023-05-14T02:10:34.433Z,14.10
2023-05-14T02:12:38.077Z,12.63
2023-05-14T02:14:40.600Z,12.27
2023-05-14T02:16:43.317Z,13.48
2023-05-14T02:18:45.745Z,12.20
2023-05-14T02:20:49.120Z,13.40
2023-05-14T02:22:53.499Z,14.00
2023-05-14T02:24:56.909Z,11.15
2023-05-14T02:27:01.320Z,10.65
2023-05-14T02:29:03.828Z,13.00
2023-05-14T02:31:06.420Z,12.57
2023-05-14T02:33:09.609Z,13.23
2023-05-14T02:35:12.535Z,11.20
2023-05-14T02:37:15.128Z,15.38
2023-05-14T02:39:17.911Z,12.40
2023-05-14T02:41:22.053Z,13.68
2023-05-14T02:43:24.848Z,13.02
2023-05-14T02:45:28.351Z,13.20
2023-05-14T02:47:31.153Z,13.45
2023-05-14T02:49:33.644Z,11.57
2023-05-14T02:51:36.652Z,11.02
2023-05-14T02:53:39.127Z,12.55
2023-05-14T02:55:41.963Z,12.05
2023-05-14T02:57:45.265Z,13.40
2023-05-14T02:59:48.022Z,13.63
2023-05-14T03:01:51.733Z,12.20
2023-05-14T03:03:55.716Z,11.52
2023-05-14T03:05:58.275Z,10.18
2023-05-14T03:08:01.459Z,13.52
2023-05-14T03:10:04.605Z,15.57
2023-05-14T03:12:08.217Z,13.15
2023-05-14T03:14:11.283Z,11.63
2023-05-14T03:16:14.081Z,11.18
2023-05-14T03:18:16.884Z,10.43
2023-05-14T03:20:19.642Z,11.57
2023-05-14T03:22:22.236Z,10.43
2023-05-14T03:24:24.909Z,11.43
2023-05-14T03:26:27.339Z,12.07
2023-05-14T03:28:30.239Z,10.98
2023-05-14T03:30:32.764Z,9.32
2023-05-14T03:32:35.951Z,11.77
2023-05-14T03:34:39.171Z,11.35
2023-05-14T03:36:42.446Z,11.95
2023-05-14T03:38:45.088Z,12.65
2023-05-14T03:40:49.274Z,12.43
2023-05-14T03:42:51.717Z,11.40
2023-05-14T03:44:54.443Z,16.13
2023-05-14T03:46:56.826Z,12.18
2023-05-14T03:48:59.302Z,15.07
2023-05-14T03:51:02.895Z,13.20
2023-05-14T03:53:05.421Z,13.15
2023-05-14T03:55:08.351Z,11.80
2023-05-14T03:57:11.972Z,11.27
2023-05-14T03:59:14.460Z,11.02
2023-05-14T04:01:16.947Z,10.05
2023-05-14T04:03:19.940Z,9.30
2023-05-14T04:05:23.072Z,12.77
2023-05-14T04:07:25.793Z,12.77
2023-05-14T04:09:28.973Z,12.48
2023-05-14T04:11:32.335Z,11.80
2023-05-14T04:13:35.777Z,10.88
2023-05-14T04:15:39.889Z,13.13
2023-05-14T04:17:44.118Z,10.43
2023-05-14T04:19:48.378Z,11.13
2023-05-14T04:21:51.224Z,11.38
2023-05-14T04:23:54.875Z,11.07
2023-05-14T04:25:57.732Z,16.05
2023-05-14T04:28:00.611Z,14.45
2023-05-14T04:30:03.375Z,14.00
2023-05-14T04:32:07.288Z,15.13
2023-05-14T04:34:09.957Z,15.63
2023-05-14T04:36:13.285Z,14.38
2023-05-14T04:38:16.120Z,15.07
2023-05-14T04:40:19.572Z,14.48
2023-05-14T04:42:22.410Z,15.40
2023-05-14T04:44:24.868Z,14.82
2023-05-14T04:46:27.284Z,13.25
2023-05-14T04:48:29.842Z,13.88
2023-05-14T04:50:32.677Z,14.15
2023-05-14T04:52:35.366Z,14.63
2023-05-14T04:54:37.774Z,12.95
2023-05-14T04:56:40.424Z,14.73
2023-05-14T04:58:43.556Z,13.43
2023-05-14T05:00:46.638Z,14.65
2023-05-14T05:02:49.397Z,15.13
2023-05-14T05:04:51.880Z,12.95
2023-05-14T05:06:54.173Z,16.17
2023-05-14T05:08:57.064Z,14.60
2023-05-14T05:10:59.696Z,14.02
2023-05-14T05:13:02.485Z,14.57
2023-05-14T05:15:07.020Z,15.60
2023-05-14T05:17:09.904Z,15.40
2023-05-14T05:19:12.721Z,14.70
2023-05-14T05:21:19.132Z,13.95
2023-05-14T05:23:21.806Z,15.57
2023-05-14T05:25:24.074Z,14.57
2023-05-14T05:27:27.093Z,15.52
2023-05-14T05:29:30.171Z,14.52
2023-05-14T05:31:32.847Z,14.18
2023-05-14T05:33:36.104Z,15.40
2023-05-14T05:35:39.062Z,15.88
2023-05-14T05:37:43.089Z,15.85
2023-05-14T05:39:46.034Z,15.35
2023-05-14T05:41:48.666Z,15.73
2023-05-14T05:43:51.305Z,14.70
2023-05-14T05:45:53.777Z,15.43
2023-05-14T05:47:56.359Z,15.80
2023-05-14T05:50:00.186Z,16.35
2023-05-14T05:52:03.186Z,16.20
2023-05-14T05:54:05.942Z,18.42
2023-05-14T05:56:09.137Z,19.25
2023-05-14T05:58:11.672Z,20.35
2023-05-14T06:00:15.825Z,22.15
2023-05-14T06:02:20.054Z,20.88
2023-05-14T06:04:22.822Z,19.77
2023-05-14T06:06:25.240Z,21.17
2023-05-14T06:08:30.806Z,22.60
2023-05-14T06:10:35.140Z,21.90
2023-05-14T06:12:38.022Z,18.20
2023-05-14T06:14:43.967Z,19.77
2023-05-14T06:16:49.591Z,17.27
2023-05-14T06:18:53.409Z,18.95
2023-05-14T06:20:57.584Z,16.65
2023-05-14T06:23:00.114Z,18.02
2023-05-14T06:25:03.324Z,17.15
2023-05-14T06:27:07.183Z,19.23
2023-05-14T06:29:09.733Z,18.45
2023-05-14T06:31:12.180Z,18.27
2023-05-14T06:33:15.984Z,16.20
2023-05-14T06:35:19.842Z,16.70
2023-05-14T06:37:22.652Z,17.20
2023-05-14T06:39:25.437Z,15.82
2023-05-14T06:41:30.341Z,14.70
2023-05-14T06:43:32.833Z,16.02
2023-05-14T06:45:36.409Z,16.48
2023-05-14T06:47:38.865Z,15.55
2023-05-14T06:49:41.174Z,16.33
2023-05-14T06:51:43.994Z,15.90
2023-05-14T06:53:47.721Z,15.50
2023-05-14T06:55:51.203Z,15.80
2023-05-14T06:57:53.409Z,15.98
2023-05-14T06:59:55.955Z,13.98
2023-05-14T07:01:59.412Z,15.73
2023-05-14T07:04:02.098Z,16.73
2023-05-14T07:06:05.068Z,15.32
2023-05-14T07:08:07.682Z,13.88
2023-05-14T07:10:10.713Z,15.43
2023-05-14T07:12:13.635Z,14.32
2023-05-14T07:14:16.911Z,15.93
2023-05-14T07:16:20.114Z,14.75
2023-05-14T07:18:24.889Z,16.33
2023-05-14T07:20:27.943Z,16.45
2023-05-14T07:22:30.536Z,15.50
2023-05-14T07:24:33.233Z,12.63
2023-05-14T07:26:35.903Z,15.20
2023-05-14T07:28:38.687Z,12.13
2023-05-14T07:30:41.910Z,13.57
2023-05-14T07:32:44.846Z,12.70
2023-05-14T07:34:47.876Z,13.15
2023-05-14T07:36:50.461Z,12.63
2023-05-14T07:38:53.131Z,12.98
2023-05-14T07:40:56.854Z,12.75
2023-05-14T07:42:59.805Z,14.27
2023-05-14T07:45:02.515Z,15.05
2023-05-14T07:47:07.959Z,13.70
2023-05-14T07:49:10.871Z,12.77
2023-05-14T07:51:13.379Z,15.45
2023-05-14T07:53:16.388Z,13.73
2023-05-14T07:55:18.932Z,15.15
2023-05-14T07:57:22.445Z,15.27
2023-05-14T07:59:25.396Z,12.52
2023-05-14T08:01:28.121Z,14.25
2023-05-14T08:03:30.968Z,15.32
2023-05-14T08:05:33.580Z,14.30
2023-05-14T08:07:36.236Z,15.13
2023-05-14T08:09:38.919Z,14.82
2023-05-14T08:11:41.749Z,13.68
2023-05-14T08:13:45.009Z,13.82
2023-05-14T08:15:48.217Z,13.73
2023-05-14T08:17:50.813Z,11.77
2023-05-14T08:19:54.756Z,13.50
2023-05-14T08:21:57.616Z,13.88
2023-05-14T08:24:00.800Z,13.73
2023-05-14T08:26:03.575Z,12.65
2023-05-14T08:28:06.450Z,10.05
2023-05-14T08:30:09.798Z,11.27
2023-05-14T08:32:22.784Z,11.48
2023-05-14T08:34:26.574Z,10.02
2023-05-14T08:36:30.247Z,13.05
2023-05-14T08:38:32.945Z,12.60
2023-05-14T08:40:35.745Z,11.32
2023-05-14T08:42:42.144Z,10.02
2023-05-14T08:44:54.055Z,10.38
2023-05-14T08:46:58.103Z,8.80
2023-05-14T08:49:37.895Z,10.35
2023-05-14T08:51:41.333Z,7.50
2023-05-14T08:53:44.064Z,7.55
2023-05-14T08:55:49.991Z,8.45
2023-05-14T08:57:52.777Z,7.97
2023-05-14T08:59:55.458Z,7.25
2023-05-14T09:02:02.300Z,8.02
2023-05-14T09:04:09.562Z,7.38
2023-05-14T09:06:15.031Z,7.90
2023-05-14T09:08:17.638Z,6.95
2023-05-14T09:10:21.869Z,8.00
2023-05-14T09:12:24.681Z,7.65
2023-05-14T09:14:27.496Z,7.50
2023-05-14T09:16:31.220Z,7.43
2023-05-14T09:18:36.503Z,7.60
2023-05-14T09:20:39.561Z,6.93
2023-05-14T09:22:43.130Z,7.80
2023-05-14T09:24:46.797Z,8.30
2023-05-14T09:26:57.957Z,8.07
2023-05-14T09:29:02.741Z,6.88
2023-05-14T09:31:05.851Z,6.28
2023-05-14T09:33:10.849Z,6.90
2023-05-14T09:35:19.469Z,7.25
2023-05-14T09:37:22.828Z,6.50
2023-05-14T09:39:26.872Z,6.75
2023-05-14T09:41:29.778Z,6.72
2023-05-14T09:43:32.878Z,6.38
2023-05-14T09:45:35.960Z,6.60
2023-05-14T09:47:39.610Z,6.13
2023-05-14T09:49:42.540Z,5.55
2023-05-14T09:51:45.635Z,8.02
2023-05-14T09:53:49.338Z,6.72
2023-05-14T09:55:52.465Z,5.82
2023-05-14T09:57:54.840Z,7.20
2023-05-14T09:59:57.506Z,8.02
2023-05-14T10:02:01.680Z,6.75
2023-05-14T10:04:07.998Z,5.72
2023-05-14T10:06:15.500Z,6.22
2023-05-14T10:08:54.629Z,5.88
2023-05-14T10:11:00.267Z,5.88
2023-05-14T10:13:11.301Z,6.10
2023-05-14T10:15:20.661Z,6.25
2023-05-14T10:17:28.274Z,6.05
2023-05-14T10:19:37.976Z,5.25
2023-05-14T10:21:45.399Z,5.18
2023-05-14T10:23:49.460Z,5.82
2023-05-14T10:25:51.914Z,6.75
2023-05-14T10:27:55.297Z,6.47
2023-05-14T10:29:58.467Z,5.72
2023-05-14T10:32:07.278Z,5.22
2023-05-14T10:34:38.884Z,5.63
2023-05-14T10:36:42.834Z,4.97
2023-05-14T10:38:45.625Z,4.75
2023-05-14T10:40:48.354Z,5.50
2023-05-14T10:42:51.363Z,5.03
2023-05-14T10:44:59.002Z,5.75
2023-05-14T10:47:03.040Z,6.15
2023-05-14T10:49:06.167Z,6.07
2023-05-14T10:51:13.226Z,6.68
2023-05-14T10:53:16.022Z,6.05
2023-05-14T10:55:18.949Z,6.70
2023-05-14T10:57:23.061Z,7.45
2023-05-14T10:59:28.948Z,6.60
2023-05-14T11:01:32.676Z,7.28
2023-05-14T11:03:46.702Z,7.50
2023-05-14T11:05:50.322Z,6.47
2023-05-14T11:07:56.448Z,6.25
2023-05-14T11:10:05.111Z,6.50
2023-05-14T11:12:09.298Z,6.82
2023-05-14T11:14:12.692Z,8.25
2023-05-14T11:16:23.436Z,7.53
2023-05-14T11:18:31.420Z,7.47
2023-05-14T11:20:36.609Z,7.93
2023-05-14T11:22:43.764Z,7.75
2023-05-14T11:24:46.504Z,6.57
2023-05-14T11:26:49.599Z,6.80
2023-05-14T11:28:52.685Z,6.80
2023-05-14T11:30:55.184Z,6.20
2023-05-14T11:32:59.321Z,6.40
2023-05-14T11:35:03.801Z,6.78
2023-05-14T11:37:08.246Z,6.10
2023-05-14T11:39:19.347Z,6.70
2023-05-14T11:41:23.575Z,7.22
2023-05-14T11:43:29.611Z,5.78
2023-05-14T11:45:33.399Z,6.60
2023-05-14T11:47:36.060Z,6.18
2023-05-14T11:49:38.596Z,5.90
2023-05-14T11:51:41.991Z,5.72
2023-05-14T11:53:46.954Z,6.32
2023-05-14T11:55:49.626Z,5.78
2023-05-14T11:57:52.792Z,6.20
2023-05-14T12:00:00.355Z,6.03
2023-05-14T12:02:05.548Z,6.95
2023-05-14T12:04:08.495Z,5.57
2023-05-14T12:06:11.595Z,5.43
2023-05-14T12:08:24.267Z,6.13
2023-05-14T12:10:27.300Z,5.35
2023-05-14T12:12:36.340Z,6.20
2023-05-14T12:14:42.292Z,5.72
2023-05-14T12:16:46.588Z,5.22
2023-05-14T12:18:50.044Z,5.25
2023-05-14T12:20:53.170Z,6.03
2023-05-14T12:22:55.615Z,5.57
2023-05-14T12:25:00.814Z,5.95
2023-05-14T12:27:03.675Z,5.50
2023-05-14T12:29:09.668Z,5.70
2023-05-14T12:31:12.038Z,6.13
2023-05-14T12:33:18.887Z,6.90
2023-05-14T12:35:22.965Z,6.10
2023-05-14T12:37:27.385Z,5.85
2023-05-14T12:39:34.322Z,5.50
2023-05-14T12:41:37.672Z,5.22
2023-05-14T12:43:44.510Z,5.95
2023-05-14T12:45:47.210Z,5.95
2023-05-14T12:47:50.574Z,5.13
2023-05-14T12:49:53.311Z,5.70
2023-05-14T12:52:07.772Z,5.32
2023-05-14T12:54:18.545Z,5.22
2023-05-14T12:56:22.359Z,4.57
2023-05-14T12:58:25.126Z,5.25
2023-05-14T13:00:28.465Z,4.88
2023-05-14T13:02:31.086Z,5.03
2023-05-14T13:04:34.307Z,4.18
2023-05-14T13:06:37.231Z,5.10
2023-05-14T13:08:40.996Z,4.75
2023-05-14T13:10:45.711Z,4.43
2023-05-14T13:12:48.860Z,4.95
2023-05-14T13:14:51.628Z,4.43
2023-05-14T13:16:54.019Z,4.57
2023-05-14T13:18:56.539Z,4.28
2023-05-14T13:20:59.354Z,4.10
2023-05-14T13:23:02.745Z,4.28
2023-05-14T13:25:06.539Z,4.15
2023-05-14T13:27:09.055Z,3.35
2023-05-14T13:29:12.222Z,3.20
2023-05-14T13:31:15.246Z,2.88
2023-05-14T13:33:17.961Z,3.00
2023-05-14T13:35:20.435Z,3.00
2023-05-14T13:37:24.242Z,3.17
2023-05-14T13:39:27.605Z,2.78
2023-05-14T13:41:30.511Z,3.25
2023-05-14T13:43:34.697Z,2.97
2023-05-14T13:45:37.289Z,2.97
2023-05-14T13:47:40.430Z,3.42
2023-05-14T13:49:43.602Z,2.92
2023-05-14T13:51:46.748Z,3.55
2023-05-14T13:53:50.564Z,3.00
2023-05-14T13:56:01.699Z,3.33
2023-05-14T13:58:04.888Z,2.50
2023-05-14T14:00:08.916Z,3.20
2023-05-14T14:02:11.780Z,2.55
2023-05-14T14:04:16.736Z,3.20
2023-05-14T14:06:20.313Z,3.03
2023-05-14T14:08:24.506Z,3.22
2023-05-14T14:10:27.483Z,3.95
2023-05-14T14:12:30.107Z,3.40
2023-05-14T14:14:33.167Z,3.15
2023-05-14T14:16:36.966Z,3.42
2023-05-14T14:18:39.819Z,3.22
2023-05-14T14:20:42.643Z,4.63
2023-05-14T14:22:45.474Z,3.55
2023-05-14T14:24:47.957Z,3.88
2023-05-14T14:26:50.715Z,3.67
2023-05-14T14:28:53.600Z,4.07
2023-05-14T14:30:56.512Z,3.70
2023-05-14T14:33:01.932Z,3.67
2023-05-14T14:35:05.985Z,3.45
2023-05-14T14:37:08.872Z,3.70
2023-05-14T14:39:11.652Z,3.75
2023-05-14T14:41:14.785Z,4.05
2023-05-14T14:43:17.726Z,3.35
2023-05-14T14:45:20.623Z,2.88
2023-05-14T14:47:23.732Z,3.35
2023-05-14T14:49:26.696Z,3.28
2023-05-14T14:51:30.664Z,3.67
2023-05-14T14:53:34.472Z,3.20
2023-05-14T14:55:37.446Z,3.30
2023-05-14T14:57:40.158Z,3.25
2023-05-14T14:59:42.731Z,3.08
2023-05-14T15:01:45.521Z,3.40
2023-05-14T15:03:48.946Z,3.10
2023-05-14T15:05:53.913Z,3.80
2023-05-14T15:07:56.807Z,3.80
2023-05-14T15:10:01.029Z,3.65
2023-05-14T15:12:03.728Z,3.78
2023-05-14T15:14:06.440Z,3.08
2023-05-14T15:16:09.744Z,3.25
2023-05-14T15:18:12.961Z,3.47
2023-05-14T15:20:16.611Z,3.67
2023-05-14T15:22:19.428Z,3.95
2023-05-14T15:24:24.410Z,3.17
2023-05-14T15:26:27.039Z,3.70
2023-05-14T15:28:29.631Z,3.50
2023-05-14T15:30:31.996Z,3.67
2023-05-14T15:32:34.962Z,3.70
2023-05-14T15:34:37.788Z,3.65
2023-05-14T15:36:41.256Z,3.78
2023-05-14T15:38:43.852Z,3.42
2023-05-14T15:40:46.626Z,3.40
2023-05-14T15:42:49.118Z,3.38
2023-05-14T15:44:52.425Z,3.80
2023-05-14T15:46:55.346Z,3.22
2023-05-14T15:48:58.714Z,3.25
2023-05-14T15:51:01.309Z,3.17
2023-05-14T15:53:04.022Z,3.58
2023-05-14T15:55:08.424Z,3.40
2023-05-14T15:57:11.189Z,2.88
2023-05-14T15:59:15.663Z,3.85
2023-05-14T16:01:19.667Z,3.65
2023-05-14T16:03:22.430Z,3.85
2023-05-14T16:05:25.635Z,4.40
2023-05-14T16:07:28.198Z,4.20
2023-05-14T16:09:31.415Z,4.85
2023-05-14T16:11:34.591Z,4.50
2023-05-14T16:13:39.035Z,4.30
2023-05-14T16:15:42.870Z,4.22
2023-05-14T16:17:45.909Z,4.30
2023-05-14T16:19:48.635Z,3.97
2023-05-14T16:21:51.508Z,4.18
2023-05-14T16:23:54.220Z,9.00
2023-05-14T16:25:57.164Z,11.25
2023-05-14T16:28:00.783Z,8.98
2023-05-14T16:30:05.553Z,6.47
2023-05-14T16:32:09.234Z,4.70
2023-05-14T16:34:12.084Z,4.28
2023-05-14T16:36:14.984Z,3.70
2023-05-14T16:38:19.861Z,3.70
2023-05-14T16:40:24.104Z,3.70
2023-05-14T16:42:27.241Z,3.63
2023-05-14T16:44:30.209Z,3.38
2023-05-14T16:46:33.469Z,4.30
2023-05-14T16:48:36.337Z,3.40
2023-05-14T16:50:39.050Z,3.58
2023-05-14T16:52:42.431Z,4.13
2023-05-14T16:54:45.562Z,4.20
2023-05-14T16:56:48.481Z,3.88
2023-05-14T16:58:52.266Z,4.63
2023-05-14T17:00:54.906Z,4.63
2023-05-14T17:02:57.892Z,4.38
2023-05-14T17:05:01.357Z,4.68
2023-05-14T17:07:06.162Z,4.35
2023-05-14T17:09:09.057Z,4.13
2023-05-14T17:11:12.067Z,4.75
2023-05-14T17:13:15.753Z,4.43
2023-05-14T17:15:18.489Z,4.22
2023-05-14T17:17:21.257Z,4.28
2023-05-14T17:19:24.140Z,4.47
2023-05-14T17:21:27.289Z,3.47
2023-05-14T17:23:29.966Z,4.30
2023-05-14T17:25:33.949Z,3.78
2023-05-14T17:27:36.933Z,4.10
2023-05-14T17:29:39.913Z,5.15
2023-05-14T17:31:43.430Z,4.63
2023-05-14T17:33:46.110Z,4.43
2023-05-14T17:35:49.602Z,4.55
2023-05-14T17:37:52.698Z,4.93
2023-05-14T17:39:55.520Z,5.88
2023-05-14T17:41:58.104Z,4.93
2023-05-14T17:44:00.959Z,5.80
2023-05-14T17:46:04.053Z,6.00
2023-05-14T17:48:07.075Z,6.40
2023-05-14T17:50:09.972Z,6.00
2023-05-14T17:52:12.780Z,6.15
2023-05-14T17:54:15.550Z,6.03
2023-05-14T17:56:19.322Z,6.05
2023-05-14T17:58:22.179Z,4.72
2023-05-14T18:00:25.677Z,4.82
2023-05-14T18:02:28.573Z,5.28
2023-05-14T18:04:31.586Z,4.47
2023-05-14T18:06:34.261Z,4.90
2023-05-14T18:08:37.140Z,5.35
2023-05-14T18:10:40.148Z,5.20
2023-05-14T18:12:43.483Z,4.78
2023-05-14T18:14:46.798Z,4.35
2023-05-14T18:16:49.563Z,4.05
2023-05-14T18:18:52.969Z,5.35
2023-05-14T18:20:55.861Z,5.50
2023-05-14T18:22:58.741Z,5.07
2023-05-14T18:25:01.472Z,4.43
2023-05-14T18:27:05.504Z,4.68
2023-05-14T18:29:08.559Z,4.18
2023-05-14T18:31:11.547Z,5.82
2023-05-14T18:33:14.479Z,5.47
2023-05-14T18:35:17.436Z,5.60
2023-05-14T18:37:19.926Z,8.15
2023-05-14T18:39:23.186Z,7.88
2023-05-14T18:41:26.016Z,5.97
2023-05-14T18:43:28.999Z,7.85
2023-05-14T18:45:31.954Z,7.32
2023-05-14T18:47:35.759Z,7.82
2023-05-14T18:49:42.968Z,6.20
2023-05-14T18:51:46.583Z,7.30
2023-05-14T18:53:49.421Z,6.35
2023-05-14T18:55:52.810Z,5.07
2023-05-14T18:57:55.712Z,5.25
2023-05-14T18:59:58.381Z,4.53
2023-05-14T19:02:01.014Z,4.82
2023-05-14T19:04:05.386Z,5.53
2023-05-14T19:06:08.580Z,5.22
2023-05-14T19:08:11.979Z,4.82
2023-05-14T19:10:15.243Z,5.40
2023-05-14T19:12:18.086Z,4.88
2023-05-14T19:14:20.878Z,5.22
2023-05-14T19:16:24.988Z,5.07
2023-05-14T19:18:27.776Z,4.43
2023-05-14T19:20:30.620Z,4.43
2023-05-14T19:22:33.502Z,4.95
2023-05-14T19:24:38.413Z,5.68
2023-05-14T19:26:42.362Z,5.68
2023-05-14T19:28:44.932Z,5.38
2023-05-14T19:30:48.228Z,6.68
2023-05-14T19:32:51.419Z,6.60
2023-05-14T19:34:54.773Z,5.57
2023-05-14T19:36:57.962Z,4.80
2023-05-14T19:39:01.053Z,5.28
2023-05-14T19:41:04.041Z,5.50
2023-05-14T19:43:08.990Z,5.93
2023-05-14T19:45:12.340Z,6.18
2023-05-14T19:47:15.906Z,4.97
2023-05-14T19:49:18.917Z,4.70
2023-05-14T19:51:21.848Z,5.35
2023-05-14T19:53:30.254Z,4.60
2023-05-14T19:55:33.378Z,5.50
2023-05-14T19:57:35.985Z,6.47
2023-05-14T19:59:40.007Z,5.93
2023-05-14T20:01:42.649Z,5.45
2023-05-14T20:03:45.436Z,5.65
2023-05-14T20:05:49.464Z,5.32
2023-05-14T20:07:54.968Z,5.68
2023-05-14T20:09:57.622Z,4.80
2023-05-14T20:12:00.446Z,5.22
2023-05-14T20:14:03.373Z,4.90
2023-05-14T20:16:07.124Z,6.05
2023-05-14T20:18:10.381Z,5.28
2023-05-14T20:20:14.861Z,5.63
2023-05-14T20:22:17.613Z,5.88
2023-05-14T20:24:20.620Z,5.90
2023-05-14T20:26:23.291Z,5.53
2023-05-14T20:28:26.459Z,5.97
2023-05-14T20:30:29.529Z,5.32
2023-05-14T20:32:32.700Z,5.15
2023-05-14T20:34:35.442Z,5.45
2023-05-14T20:36:38.129Z,5.80
2023-05-14T20:38:41.357Z,6.50
2023-05-14T20:40:45.091Z,5.93
2023-05-14T20:42:47.870Z,5.00
2023-05-14T20:44:51.093Z,6.30
2023-05-14T20:46:53.748Z,5.72
2023-05-14T20:48:57.885Z,6.07
2023-05-14T20:51:02.094Z,6.15
2023-05-14T20:53:05.136Z,7.50
2023-05-14T20:55:08.939Z,6.38
2023-05-14T20:57:12.082Z,7.40
2023-05-14T20:59:14.642Z,7.03
2023-05-14T21:01:17.936Z,7.35
2023-05-14T21:03:21.809Z,5.95
2023-05-14T21:05:24.987Z,6.40
2023-05-14T21:07:28.903Z,6.38
2023-05-14T21:09:31.853Z,6.20
2023-05-14T21:11:34.728Z,5.90
2023-05-14T21:13:37.419Z,5.30
2023-05-14T21:15:40.266Z,6.93
2023-05-14T21:17:42.934Z,5.38
2023-05-14T21:19:45.527Z,6.05
2023-05-14T21:21:48.061Z,5.80
2023-05-14T21:23:50.630Z,5.15
2023-05-14T21:25:55.020Z,4.82
2023-05-14T21:27:58.204Z,4.40
2023-05-14T21:30:00.621Z,4.57
2023-05-14T21:32:03.454Z,4.25
2023-05-14T21:34:06.768Z,4.00
2023-05-14T21:36:10.139Z,3.72
2023-05-14T21:38:13.246Z,3.42
2023-05-14T21:40:16.588Z,3.67
2023-05-14T21:42:21.589Z,3.90
2023-05-14T21:44:24.236Z,3.63
2023-05-14T21:46:27.125Z,4.80
2023-05-14T21:48:29.663Z,3.67
2023-05-14T21:50:31.993Z,3.45
2023-05-14T21:52:34.442Z,3.05
2023-05-14T21:54:36.855Z,3.42
2023-05-14T21:56:40.567Z,3.20
2023-05-14T21:58:43.081Z,3.97
2023-05-14T22:00:46.045Z,3.05
2023-05-14T22:02:48.686Z,2.90
2023-05-14T22:04:51.180Z,3.28
2023-05-14T22:06:53.913Z,2.83
2023-05-14T22:08:56.724Z,3.33
2023-05-14T22:10:59.094Z,3.20
2023-05-14T22:13:01.729Z,3.00
2023-05-14T22:15:05.744Z,2.88
2023-05-14T22:17:08.754Z,3.35
2023-05-14T22:19:12.260Z,2.78
2023-05-14T22:21:15.565Z,2.50
2023-05-14T22:23:18.582Z,3.45
2023-05-14T22:25:21.053Z,3.15
2023-05-14T22:27:23.652Z,2.95
2023-05-14T22:29:26.582Z,2.70
2023-05-14T22:31:30.553Z,3.10
2023-05-14T22:33:33.692Z,2.92
2023-05-14T22:35:36.996Z,3.33
2023-05-14T22:37:40.572Z,3.20
2023-05-14T22:39:44.273Z,3.70
2023-05-14T22:41:46.753Z,3.40
2023-05-14T22:43:50.443Z,3.92
2023-05-14T22:45:53.548Z,3.80
2023-05-14T22:47:56.062Z,2.97
2023-05-14T22:49:58.573Z,2.78
2023-05-14T22:52:02.005Z,4.40
2023-05-14T22:54:05.393Z,3.92
2023-05-14T22:56:08.478Z,3.45
2023-05-14T22:58:11.524Z,3.83
2023-05-14T23:00:15.212Z,3.65
2023-05-14T23:02:18.482Z,4.13
2023-05-14T23:04:21.438Z,4.10
2023-05-14T23:06:25.569Z,4.22
2023-05-14T23:08:28.511Z,4.47
2023-05-14T23:10:31.205Z,4.70
2023-05-14T23:12:34.961Z,5.05
2023-05-14T23:14:38.203Z,5.22
2023-05-14T23:16:40.913Z,5.50
2023-05-14T23:18:44.330Z,4.97
2023-05-14T23:20:46.916Z,4.30
2023-05-14T23:22:49.861Z,5.07
2023-05-14T23:24:53.052Z,5.20
2023-05-14T23:26:56.278Z,5.60
2023-05-14T23:28:58.888Z,5.50
2023-05-14T23:31:01.843Z,4.90
2023-05-14T23:33:04.452Z,5.03
2023-05-14T23:35:07.111Z,5.28
2023-05-14T23:37:09.932Z,5.05
2023-05-14T23:39:12.794Z,4.63
2023-05-14T23:41:15.159Z,5.57
2023-05-14T23:43:18.187Z,5.43
2023-05-14T23:45:21.229Z,4.20
2023-05-14T23:47:23.702Z,4.22
2023-05-14T23:49:26.494Z,4.85
2023-05-14T23:51:29.033Z,6.72
2023-05-14T23:53:32.129Z,5.35
2023-05-14T23:55:34.817Z,6.35
2023-05-14T23:57:37.807Z,5.05
2023-05-14T23:59:40.680Z,5.50
